Time;durP1;ratioP1;P1;durP2;ratioP2;P2;SDS_P1;SDS_P2;PMS_P1;PMS_P2;Temp;Humidity;BMP_temperature;BMP_pressure;BME280_temperature;BME280_humidity;BME280_pressure;Samples;Min_cycle;Max_cycle;Signal;HPM_P1;HPM_P2
2022/09/20 00:01:35;;;;;;;3.17;1.67;;;10.20;99.90;;;13.38;54.00;98079.88;5026839;28;20055;-62
2022/09/20 00:04:05;;;;;;;3.90;1.83;;;10.30;99.90;;;13.31;54.10;98076.19;5024987;28;20061;-62
2022/09/20 00:06:34;;;;;;;6.17;1.77;;;10.20;99.90;;;13.36;54.23;98069.34;5026496;28;20053;-62
2022/09/20 00:09:04;;;;;;;8.23;2.10;;;10.30;99.90;;;13.38;53.73;98069.19;5027434;28;20059;-62
2022/09/20 00:11:33;;;;;;;3.90;1.77;;;10.30;99.90;;;13.38;53.75;98075.38;5026852;28;20049;-62
2022/09/20 00:14:07;;;;;;;4.37;1.60;;;10.30;99.90;;;13.29;53.95;98070.97;5026946;28;20038;-62
2022/09/20 00:16:39;;;;;;;4.32;1.73;;;10.10;99.90;;;13.27;53.90;98081.00;5027104;28;20292;-62
2022/09/20 00:19:08;;;;;;;4.77;2.10;;;10.10;99.90;;;13.16;54.16;98079.53;5025725;28;20057;-64
2022/09/20 00:21:36;;;;;;;4.40;1.80;;;10.00;99.90;;;13.17;53.99;98077.69;5024709;28;20049;-64
2022/09/20 00:24:05;;;;;;;3.97;1.33;;;10.00;99.90;;;13.10;54.15;98080.16;5026184;28;20056;-64
2022/09/20 00:26:32;;;;;;;4.33;1.90;;;10.00;99.90;;;13.16;54.17;98071.50;5026130;28;20248;-64
2022/09/20 00:29:00;;;;;;;5.67;2.07;;;10.00;99.90;;;13.19;54.06;98073.00;5025100;28;20271;-64
2022/09/20 00:31:28;;;;;;;7.03;2.17;;;10.00;99.90;;;13.19;54.03;98084.53;5025008;28;20387;-64
2022/09/20 00:36:44;;;;;;;5.27;1.93;;;10.10;99.90;;;13.23;53.58;98078.84;5027468;28;20247;-64
2022/09/20 00:39:14;;;;;;;2.47;1.70;;;10.10;99.90;;;13.22;53.63;98069.16;5024915;28;20050;-64
2022/09/20 00:41:42;;;;;;;3.87;1.87;;;10.10;99.90;;;13.22;53.85;98072.66;5024751;28;20049;-64
2022/09/20 00:44:44;;;;;;;4.17;1.87;;;10.10;99.90;;;13.27;53.74;98075.66;5009041;28;20049;-64
2022/09/20 00:47:41;;;;;;;1.87;1.20;;;10.10;99.90;;;13.32;53.73;98070.69;5027157;28;20071;-64
2022/09/20 00:50:27;;;;;;;6.00;2.30;;;10.20;99.90;;;13.27;53.49;98082.84;5025116;28;20063;-64
2022/09/20 00:53:23;;;;;;;5.83;1.90;;;10.10;99.90;;;13.13;53.63;98077.19;5025866;28;20057;-64
2022/09/20 00:56:27;;;;;;;3.43;1.63;;;10.00;99.90;;;13.20;53.56;98083.53;5026736;28;20045;-64
2022/09/20 00:59:14;;;;;;;5.13;2.00;;;10.10;99.90;;;13.22;53.69;98071.81;5025256;28;20063;-64
2022/09/20 01:01:45;;;;;;;7.53;1.77;;;10.10;99.90;;;13.19;53.57;98075.69;5024880;28;20071;-64
2022/09/20 01:04:15;;;;;;;4.50;1.77;;;10.10;99.90;;;13.20;53.28;98077.31;5025244;28;20057;-64
2022/09/20 01:06:45;;;;;;;5.03;1.77;;;10.10;99.90;;;13.12;53.45;98078.16;5026142;28;20431;-64
2022/09/20 01:09:14;;;;;;;7.10;3.10;;;10.00;99.90;;;13.09;53.60;98075.00;5026618;28;20057;-64
2022/09/20 01:11:42;;;;;;;2.60;1.40;;;9.90;99.90;;;13.09;53.62;98077.69;5025010;28;20200;-64
2022/09/20 01:14:14;;;;;;;4.67;1.80;;;9.90;99.90;;;13.04;53.98;98072.00;5025303;28;20072;-64
2022/09/20 01:16:42;;;;;;;4.23;1.60;;;9.90;99.90;;;13.07;53.59;98079.69;5025509;28;20332;-64
2022/09/20 01:20:06;;;;;;;7.17;2.30;;;9.90;99.90;;;13.06;53.85;98075.34;5026423;28;20060;-64
2022/09/20 01:23:07;;;;;;;4.97;2.10;;;9.90;99.90;;;13.12;53.56;98072.00;5018967;28;20053;-64
2022/09/20 01:26:02;;;;;;;4.70;1.93;;;10.00;99.90;;;13.15;53.43;98067.16;5026115;28;20064;-62
2022/09/20 01:28:30;;;;;;;;;;;10.00;99.90;;;13.21;53.41;98071.00;5028420;28;20057;-64
2022/09/20 01:31:22;;;;;;;9.93;1.80;;;10.00;99.90;;;13.15;53.29;98069.00;5026784;28;19923;-64
2022/09/20 01:34:09;;;;;;;5.30;1.70;;;9.90;99.90;;;12.98;53.55;98066.31;5027078;28;20684;-64
2022/09/20 01:37:02;;;;;;;3.90;1.73;;;9.80;99.90;;;13.07;53.76;98069.00;5024197;28;20053;-64
2022/09/20 01:39:47;;;;;;;4.03;1.70;;;9.90;99.90;;;12.95;53.71;98063.97;5025684;28;20053;-64
2022/09/20 01:42:16;;;;;;;4.00;1.60;;;9.90;99.90;;;12.99;53.70;98064.50;5026687;28;20057;-64
2022/09/20 01:45:13;;;;;;;6.43;1.80;;;9.80;99.90;;;12.92;53.99;98066.13;5026887;28;20045;-64
2022/09/20 01:47:53;;;;;;;6.23;2.20;;;9.80;99.90;;;12.95;53.58;98058.63;5026490;28;20263;-64
2022/09/20 01:50:49;;;;;;;3.40;1.60;;;9.80;99.90;;;12.96;54.02;98054.94;5027142;28;20059;-64
2022/09/20 01:53:59;;;;;;;3.93;1.77;;;9.90;99.90;;;12.89;53.91;98053.97;5026644;28;20065;-62
2022/09/20 01:57:04;;;;;;;4.93;1.67;;;9.80;99.90;;;12.77;54.24;98063.28;5029904;28;20053;-62
2022/09/20 01:59:50;;;;;;;;;;;9.80;99.90;;;12.82;53.69;98057.47;5011795;28;20364;-62
2022/09/20 02:03:08;;;;;;;4.23;1.70;;;9.80;99.90;;;12.86;53.58;98064.13;5030138;28;19925;-62
2022/09/20 02:06:38;;;;;;;6.43;1.77;;;9.70;99.90;;;12.73;53.90;98073.44;5029087;28;20063;-62
2022/09/20 02:09:14;;;;;;;4.17;1.70;;;9.70;99.90;;;12.80;54.05;98071.81;5029368;28;20068;-62
2022/09/20 02:12:21;;;;;;;2.63;1.90;;;9.70;99.90;;;12.78;54.45;98071.13;5029348;28;20561;-64
2022/09/20 02:15:08;;;;;;;8.93;2.13;;;9.70;99.90;;;12.96;54.09;98067.47;5028566;28;20049;-64
2022/09/20 02:18:00;;;;;;;3.77;1.83;;;9.80;99.90;;;13.04;54.04;98069.31;5029993;28;20057;-64
2022/09/20 02:21:04;;;;;;;8.20;2.13;;;9.90;99.90;;;13.04;54.09;98072.00;5028286;28;20306;-64
2022/09/20 02:23:55;;;;;;;4.28;1.70;;;9.90;99.90;;;13.10;54.06;98061.47;5012677;28;20049;-64
2022/09/20 02:27:12;;;;;;;4.97;2.53;;;9.90;99.90;;;13.13;54.12;98057.63;5007450;28;20352;-64
2022/09/20 02:29:51;;;;;;;8.77;2.27;;;10.00;99.90;;;13.24;53.93;98070.66;5021432;28;20052;-64
2022/09/20 02:32:30;;;;;;;3.10;1.70;;;10.00;99.90;;;13.23;53.70;98076.19;5010060;28;20327;-64
2022/09/20 02:35:29;;;;;;;3.07;1.67;;;10.00;99.90;;;13.13;53.78;98071.00;5009666;28;20037;-64
2022/09/20 02:38:09;;;;;;;4.53;1.70;;;10.00;99.90;;;13.09;53.99;98065.16;5009662;28;20053;-63
2022/09/20 02:41:02;;;;;;;5.63;2.50;;;10.00;99.90;;;13.11;53.95;98057.78;5008630;28;20255;-63
2022/09/20 02:43:45;;;;;;;2.77;1.47;;;10.00;99.90;;;12.97;54.02;98064.66;5008864;28;20339;-62
2022/09/20 02:46:33;;;;;;;2.70;1.60;;;9.90;99.90;;;12.98;54.03;98065.47;5007547;28;20053;-63
2022/09/20 02:49:25;;;;;;;3.97;1.90;;;9.90;99.90;;;12.96;54.25;98065.63;5009033;28;20440;-62
2022/09/20 02:52:02;;;;;;;3.87;2.57;;;9.90;99.90;;;13.02;53.93;98056.13;5007063;28;20057;-63
2022/09/20 02:54:44;;;;;;;3.87;1.37;;;10.00;99.90;;;13.08;53.91;98059.97;5009834;28;20057;-63
2022/09/20 02:58:03;;;;;;;4.67;1.90;;;10.00;99.90;;;12.99;54.13;98062.63;5009675;28;20526;-63
2022/09/20 03:01:10;;;;;;;2.30;1.70;;;9.90;99.90;;;13.05;53.73;98066.50;5009321;28;20054;-63
2022/09/20 03:03:55;;;;;;;5.03;2.20;;;10.00;99.90;;;13.10;53.65;98061.47;5008445;28;20217;-62
2022/09/20 03:06:56;;;;;;;5.00;1.87;;;10.00;99.90;;;13.05;54.07;98065.66;5009377;28;20061;-62
2022/09/20 03:09:52;;;;;;;4.87;1.80;;;9.90;99.90;;;13.05;53.76;98073.69;5009475;28;20079;-62
2022/09/20 03:12:43;;;;;;;4.57;1.87;;;9.90;99.90;;;12.97;54.14;98078.00;5007467;28;20057;-62
2022/09/20 03:15:38;;;;;;;5.50;2.10;;;9.80;99.90;;;12.77;54.54;98080.13;5008165;28;20041;-62
2022/09/20 03:18:15;;;;;;;8.88;2.22;;;9.80;99.90;;;12.87;54.24;98085.34;5008515;28;20053;-62
2022/09/20 03:21:00;;;;;;;9.00;2.17;;;9.70;99.90;;;12.84;54.26;98085.66;5006247;28;20063;-62
2022/09/20 03:24:21;;;;;;;3.83;2.03;;;9.70;99.90;;;12.87;54.39;98087.16;5006799;28;20064;-62
2022/09/20 03:26:57;;;;;;;7.13;1.90;;;9.70;99.90;;;12.85;54.48;98090.00;5007472;28;20050;-62
2022/09/20 03:30:05;;;;;;;5.33;1.93;;;9.80;99.90;;;12.83;54.53;98083.97;5007408;28;20344;-62
2022/09/20 03:33:00;;;;;;;3.70;2.17;;;9.70;99.90;;;12.88;54.41;98087.00;5007224;28;20053;-62
2022/09/20 03:36:07;;;;;;;4.67;2.00;;;9.80;99.90;;;12.91;54.46;98089.38;5008688;28;20050;-62
2022/09/20 03:38:56;;;;;;;5.53;2.10;;;9.80;99.90;;;12.98;54.55;98084.19;5007293;28;20060;-62
2022/09/20 03:41:54;;;;;;;6.57;1.80;;;9.80;99.90;;;12.95;54.52;98087.16;5007096;28;20054;-62
2022/09/20 03:45:07;;;;;;;9.13;1.83;;;9.80;99.90;;;12.97;54.45;98087.88;5007547;28;20374;-62
2022/09/20 03:48:05;;;;;;;5.93;1.93;;;9.80;99.90;;;13.00;54.42;98087.53;5006496;28;20241;-62
2022/09/20 03:50:51;;;;;;;7.57;2.07;;;9.90;99.90;;;12.98;54.70;98085.00;5005713;28;20054;-62
2022/09/20 03:53:25;;;;;;;3.17;1.50;;;9.90;99.90;;;13.04;54.54;98094.19;5008164;28;20226;-62
2022/09/20 03:56:53;;;;;;;4.55;2.15;;;9.90;99.90;;;12.99;54.73;98085.88;5008682;28;20049;-62
2022/09/20 04:00:02;;;;;;;2.97;1.97;;;9.90;99.90;;;13.02;54.69;98098.06;5006663;28;20066;-62
2022/09/20 04:03:15;;;;;;;5.63;2.30;;;9.90;99.90;;;13.05;54.78;98095.06;4991901;28;20077;-62
2022/09/20 04:06:30;;;;;;;7.00;2.03;;;10.00;99.90;;;12.95;55.12;98101.41;5008023;28;20050;-61
2022/09/20 04:09:32;;;;;;;;;;;9.90;99.90;;;12.97;55.10;98104.72;5007328;28;20053;-62
2022/09/20 04:12:35;;;;;;;6.53;2.03;;;9.80;99.90;;;13.01;55.39;98107.91;5007076;28;19982;-62
2022/09/20 04:15:11;;;;;;;3.70;1.97;;;9.80;99.90;;;12.91;55.70;98102.72;5005648;28;20070;-61
2022/09/20 04:17:57;;;;;;;5.27;2.23;;;9.80;99.90;;;12.95;55.38;98103.19;5008878;28;20380;-62
2022/09/20 04:20:49;;;;;;;3.47;1.83;;;9.80;99.90;;;12.90;55.89;98109.06;5006627;28;20366;-62
2022/09/20 04:23:55;;;;;;;5.57;2.17;;;9.80;99.90;;;12.88;55.58;98110.22;5006437;28;20378;-62
2022/09/20 04:26:28;;;;;;;4.93;1.80;;;9.70;99.90;;;12.95;55.91;98111.22;5006608;28;20343;-62
2022/09/20 04:29:13;;;;;;;4.35;2.42;;;9.80;99.90;;;12.99;55.83;98108.06;5007182;28;20092;-64
2022/09/20 04:32:09;;;;;;;8.30;2.43;;;9.80;99.90;;;12.98;55.55;98106.38;5006645;28;20058;-64
2022/09/20 04:37:47;;;;;;;5.33;1.90;;;9.70;99.90;;;12.85;55.46;98111.38;5005872;28;20045;-64
2022/09/20 04:40:21;;;;;;;3.93;1.83;;;9.70;99.90;;;12.89;55.50;98112.75;5005422;28;20252;-61
2022/09/20 04:43:07;;;;;;;6.00;2.47;;;9.70;99.90;;;12.80;55.54;98109.22;5005933;28;20054;-64
2022/09/20 04:46:23;;;;;;;4.23;2.30;;;9.60;99.90;;;12.75;55.78;98106.19;5006169;28;20046;-64
2022/09/20 04:49:05;;;;;;;5.73;3.17;;;9.70;99.90;;;12.78;55.85;98113.06;5005010;28;20358;-62
2022/09/20 04:52:02;;;;;;;5.23;2.40;;;9.60;99.90;;;12.78;55.59;98115.72;5007494;28;20061;-61
2022/09/20 04:55:00;;;;;;;7.33;2.47;;;9.60;99.90;;;12.68;55.58;98117.69;5006990;28;20454;-62
2022/09/20 04:57:40;;;;;;;6.93;3.37;;;9.60;99.90;;;12.65;55.76;98121.53;5006628;28;20041;-62
2022/09/20 05:00:19;;;;;;;5.93;2.83;;;9.50;99.90;;;12.59;55.96;98119.50;5006801;28;20050;-62
2022/09/20 05:03:43;;;;;;;6.33;2.50;;;9.50;99.90;;;12.58;56.00;98131.19;5005623;28;20064;-62
2022/09/20 05:06:25;;;;;;;8.73;2.40;;;9.50;99.90;;;12.51;56.09;98128.31;5003132;28;20348;-62
2022/09/20 05:09:18;;;;;;;3.67;2.00;;;9.40;99.90;;;12.47;55.94;98128.81;5006012;28;20267;-62
2022/09/20 05:12:35;;;;;;;3.53;1.80;;;9.30;99.90;;;12.26;56.55;98137.25;5006788;28;20072;-62
2022/09/20 05:15:35;;;;;;;3.83;2.17;;;9.30;99.90;;;12.36;56.14;98140.63;5006160;28;20241;-62
2022/09/20 05:18:23;;;;;;;6.60;1.97;;;9.30;99.90;;;12.42;56.40;98142.63;5006854;28;20316;-62
2022/09/20 05:21:33;;;;;;;8.10;2.60;;;9.20;99.90;;;12.24;56.81;98139.25;5004812;28;20046;-62
2022/09/20 05:24:47;;;;;;;6.70;2.50;;;9.20;99.90;;;12.32;56.40;98145.44;5006248;28;20053;-62
2022/09/20 05:27:40;;;;;;;5.40;2.77;;;9.20;99.90;;;12.29;56.54;98145.78;5010612;28;20382;-62
2022/09/20 05:30:43;;;;;;;4.10;2.10;;;9.20;99.90;;;12.33;56.71;98146.25;5011671;28;20054;-62
2022/09/20 05:33:56;;;;;;;5.73;3.90;;;9.20;99.90;;;12.38;56.81;98151.97;5008353;28;20050;-61
2022/09/20 05:36:55;;;;;;;4.57;2.13;;;9.30;99.90;;;12.41;56.49;98157.84;5008562;28;20041;-61
2022/09/20 05:40:01;;;;;;;9.67;2.20;;;9.30;99.90;;;12.32;56.77;98152.63;5009386;28;20050;-60
2022/09/20 05:42:48;;;;;;;7.83;2.57;;;9.40;99.90;;;12.39;56.61;98159.00;5008208;28;20056;-60
2022/09/20 05:45:46;;;;;;;5.10;2.47;;;9.30;99.90;;;12.45;56.82;98154.84;5009407;28;20272;-60
2022/09/20 05:49:00;;;;;;;4.27;2.70;;;9.30;99.90;;;12.46;56.85;98156.50;5009063;28;20259;-60
2022/09/20 05:52:08;;;;;;;6.22;4.13;;;9.30;99.90;;;12.47;56.97;98158.19;5013978;28;20475;-60
2022/09/20 05:55:26;;;;;;;5.03;2.60;;;9.40;99.90;;;12.46;57.05;98151.16;5009640;28;20253;-60
2022/09/20 05:58:45;;;;;;;5.07;2.30;;;9.40;99.90;;;12.42;57.17;98161.34;5009180;28;20045;-59
2022/09/20 06:01:18;;;;;;;3.80;3.03;;;9.40;99.90;;;12.49;56.90;98161.53;5009410;28;20125;-60
2022/09/20 06:04:16;;;;;;;4.30;2.60;;;9.40;99.90;;;12.41;57.52;98160.50;5009439;28;20052;-60
2022/09/20 06:06:50;;;;;;;3.27;2.60;;;9.50;99.90;;;12.48;57.43;98166.03;5009239;28;20124;-60
2022/09/20 06:09:33;;;;;;;3.97;2.60;;;9.50;99.90;;;12.46;57.46;98164.53;5008891;28;20042;-61
2022/09/20 06:12:24;;;;;;;5.23;3.23;;;9.50;99.90;;;12.34;57.93;98166.63;5010006;28;20049;-61
2022/09/20 06:15:15;;;;;;;7.73;3.70;;;9.50;99.90;;;12.32;58.02;98171.31;5009616;28;20083;-62
2022/09/20 06:18:17;;;;;;;6.57;3.10;;;9.50;99.90;;;12.47;57.55;98172.38;5008839;28;20053;-61
2022/09/20 06:21:23;;;;;;;5.90;2.73;;;9.50;99.90;;;12.30;57.93;98166.13;5008398;28;20061;-61
2022/09/20 06:24:01;;;;;;;5.27;2.67;;;9.50;99.90;;;12.39;57.68;98164.34;5005897;28;20065;-60
2022/09/20 06:26:35;;;;;;;4.70;2.13;;;9.50;99.90;;;12.44;57.97;98162.00;5007902;28;20229;-60
2022/09/20 06:29:10;;;;;;;4.70;2.50;;;9.60;99.90;;;12.53;57.83;98169.06;5008800;28;20271;-60
2022/09/20 06:31:38;;;;;;;5.40;2.50;;;9.60;99.90;;;12.54;57.79;98167.22;5008324;28;20061;-61
2022/09/20 06:34:14;;;;;;;3.67;2.40;;;9.60;99.90;;;12.56;58.11;98173.22;5007479;28;20071;-60
2022/09/20 06:43:09;;;;;;;5.60;2.30;;;9.80;99.90;;;12.47;58.61;98176.91;5009464;28;20420;-62
2022/09/20 06:45:36;;;;;;;7.67;2.67;;;9.70;99.90;;;12.51;58.89;98183.59;5007906;28;20054;-63
2022/09/20 06:48:04;;;;;;;5.10;2.70;;;9.80;99.90;;;12.50;58.47;98182.72;5007763;28;20050;-63
2022/09/20 06:50:35;;;;;;;6.63;2.57;;;9.80;99.90;;;12.40;59.16;98185.50;5010083;28;20050;-63
2022/09/20 06:53:02;;;;;;;8.67;3.50;;;9.80;99.90;;;12.63;58.81;98192.97;5008805;28;20065;-60
2022/09/20 06:55:39;;;;;;;11.87;3.40;;;9.80;99.90;;;12.69;58.67;98195.00;5008310;28;20052;-61
2022/09/20 06:58:08;;;;;;;7.23;3.07;;;9.90;99.90;;;12.38;59.47;98189.34;5010138;28;20042;-61
2022/09/20 07:00:38;;;;;;;5.07;2.40;;;9.90;99.90;;;12.56;58.96;98189.25;5007553;28;20054;-62
2022/09/20 07:03:07;;;;;;;5.10;2.30;;;9.90;99.90;;;12.51;58.92;98194.25;5009489;28;20535;-59
2022/09/20 07:05:35;;;;;;;3.33;2.40;;;9.90;99.90;;;12.57;58.87;98190.94;5006606;28;20045;-59
2022/09/20 07:08:03;;;;;;;5.73;2.40;;;9.90;99.90;;;12.76;58.62;98193.34;5007585;28;20252;-61
2022/09/20 07:10:31;;;;;;;9.10;2.80;;;10.00;99.90;;;12.65;59.26;98190.16;5007733;28;20041;-61
2022/09/20 07:13:00;;;;;;;7.87;3.03;;;10.10;99.90;;;12.82;58.80;98193.72;5007338;28;20050;-61
2022/09/20 07:15:31;;;;;;;6.43;2.97;;;10.10;99.90;;;12.98;58.35;98197.25;5007707;28;20593;-61
2022/09/20 07:17:59;;;;;;;5.50;2.60;;;10.20;99.90;;;13.14;58.12;98200.97;5005969;28;20070;-61
2022/09/20 07:20:27;;;;;;;7.20;2.60;;;10.30;99.90;;;12.99;58.47;98201.63;5008424;28;20048;-61
2022/09/20 07:22:55;;;;;;;5.20;3.43;;;10.30;99.90;;;13.02;58.37;98197.78;5008649;28;20064;-61
2022/09/20 07:25:23;;;;;;;9.60;3.80;;;10.30;99.90;;;13.13;57.99;98202.00;5006558;28;20042;-62
2022/09/20 07:27:51;;;;;;;5.50;2.80;;;10.40;99.90;;;13.07;58.09;98205.31;5008905;28;20057;-62
2022/09/20 07:30:20;;;;;;;8.90;5.50;;;10.40;99.90;;;12.94;58.91;98211.94;5008376;28;20079;-62
2022/09/20 07:32:48;;;;;;;7.37;3.60;;;10.40;99.90;;;13.08;58.71;98215.81;5006919;28;20046;-62
2022/09/20 07:35:16;;;;;;;9.27;4.10;;;10.40;99.90;;;13.12;58.72;98203.81;5008260;28;20631;-62
2022/09/20 07:37:44;;;;;;;8.70;3.43;;;10.50;99.90;;;13.19;58.61;98214.69;5009330;28;20064;-62
2022/09/20 07:40:13;;;;;;;10.20;3.60;;;10.40;99.90;;;13.22;58.69;98202.81;5009611;28;20050;-62
2022/09/20 07:42:41;;;;;;;6.70;4.13;;;10.50;99.90;;;13.39;58.20;98209.91;5007674;28;20053;-62
2022/09/20 07:45:10;;;;;;;7.87;4.40;;;10.60;99.90;;;13.45;58.22;98211.91;5006858;28;20058;-62
2022/09/20 07:47:40;;;;;;;9.67;3.73;;;10.70;99.90;;;13.15;58.47;98213.34;5008783;28;20057;-62
2022/09/20 07:50:10;;;;;;;7.90;3.67;;;10.70;99.90;;;13.31;58.62;98212.56;5007146;28;20050;-61
2022/09/20 07:52:37;;;;;;;8.93;3.70;;;10.60;99.90;;;13.27;58.25;98220.03;5008723;28;20050;-61
2022/09/20 07:55:06;;;;;;;7.28;4.18;;;10.60;99.90;;;13.43;58.18;98218.44;5007338;28;20057;-61
2022/09/20 07:57:36;;;;;;;5.78;3.78;;;10.70;99.90;;;13.18;58.39;98221.88;5006103;28;20048;-60
2022/09/20 08:00:08;;;;;;;5.25;3.30;;;10.60;99.90;;;13.33;58.28;98223.94;5006551;28;20054;-63
2022/09/20 08:02:41;;;;;;;12.93;4.55;;;10.60;99.90;;;13.47;57.81;98222.44;5006415;28;20058;-62
2022/09/20 08:05:09;;;;;;;12.50;4.18;;;10.70;99.90;;;13.59;57.27;98227.31;5007163;28;20053;-63
2022/09/20 08:07:38;;;;;;;13.07;4.47;;;10.80;99.90;;;13.55;57.36;98222.44;5009015;28;20054;-63
2022/09/20 08:10:06;;;;;;;8.02;4.00;;;10.90;99.90;;;13.53;57.54;98222.63;5006498;28;20048;-62
2022/09/20 08:12:34;;;;;;;7.20;3.20;;;10.80;99.90;;;13.71;56.93;98232.34;5006768;28;20076;-63
2022/09/20 08:15:23;;;;;;;7.10;3.15;;;10.90;99.90;;;13.84;56.10;98242.53;5006260;28;20251;-63
2022/09/20 08:17:51;;;;;;;6.45;2.83;;;10.90;99.90;;;13.89;56.03;98240.19;5007087;28;20048;-61
2022/09/20 08:20:19;;;;;;;6.30;3.42;;;11.00;99.90;;;13.98;56.08;98253.41;5007287;28;20243;-61
2022/09/20 08:22:46;;;;;;;7.60;2.83;;;11.10;99.90;;;13.90;56.16;98247.22;5007187;28;20046;-61
2022/09/20 08:25:35;;;;;;;5.90;2.85;;;11.20;99.90;;;13.23;56.88;98250.78;5007867;28;20064;-61
2022/09/20 08:28:02;;;;;;;7.20;3.50;;;11.00;99.90;;;13.47;56.01;98242.00;5006522;28;20058;-61
2022/09/20 08:30:30;;;;;;;8.07;3.03;;;11.00;99.90;;;13.62;55.88;98252.91;5007714;28;20061;-63
2022/09/20 08:32:58;;;;;;;6.88;2.72;;;11.10;99.90;;;13.73;55.42;98251.75;5006735;28;20067;-63
2022/09/20 08:35:28;;;;;;;4.65;2.92;;;11.10;99.90;;;13.87;55.15;98252.91;5006360;28;20064;-63
2022/09/20 08:37:56;;;;;;;9.35;3.10;;;11.20;99.90;;;14.07;55.03;98250.72;5007389;28;20054;-63
2022/09/20 08:40:44;;;;;;;9.48;3.35;;;11.30;99.90;;;14.14;55.33;98246.38;5007045;28;20056;-63
2022/09/20 08:43:12;;;;;;;4.82;3.78;;;11.40;99.90;;;14.10;55.54;98247.72;5006262;28;20046;-60
2022/09/20 08:45:40;;;;;;;10.10;3.53;;;11.50;99.90;;;14.10;54.70;98243.19;5005834;28;20252;-61
2022/09/20 08:48:15;;;;;;;5.47;2.40;;;11.40;99.90;;;14.33;54.41;98246.00;5007925;28;20058;-61
2022/09/20 08:50:43;;;;;;;5.90;3.08;;;11.50;99.90;;;14.44;54.23;98244.78;5005035;28;20064;-61
2022/09/20 08:53:13;;;;;;;6.30;2.05;;;11.60;99.90;;;14.24;54.28;98243.53;5007046;28;20069;-61
2022/09/20 08:55:47;;;;;;;5.63;2.55;;;11.60;99.90;;;14.16;53.89;98245.19;5005951;28;20057;-63
2022/09/20 08:58:15;;;;;;;8.38;2.10;;;11.60;99.90;;;14.47;53.36;98246.31;5007425;28;20058;-63
2022/09/20 09:00:45;;;;;;;6.30;2.10;;;11.70;99.90;;;14.60;53.34;98240.44;5004706;28;20053;-61
2022/09/20 09:03:16;;;;;;;4.30;1.95;;;11.80;99.90;;;14.67;53.22;98233.38;5005696;28;20054;-61
2022/09/20 09:05:47;;;;;;;4.38;2.65;;;11.90;99.90;;;14.65;52.96;98241.59;5005095;28;20055;-61
2022/09/20 09:08:27;;;;;;;7.07;2.42;;;12.00;99.90;;;14.52;52.59;98234.09;5007023;28;20185;-61
2022/09/20 09:11:08;;;;;;;6.55;1.85;;;11.90;98.90;;;14.87;52.01;98231.97;5005065;28;20057;-61
2022/09/20 09:13:54;;;;;;;6.13;2.30;;;12.10;98.60;;;15.03;52.05;98238.28;5006177;28;20056;-63
2022/09/20 09:16:26;;;;;;;3.50;2.00;;;12.30;97.40;;;15.01;52.18;98235.75;5004995;28;20053;-63
2022/09/20 09:19:27;;;;;;;5.05;1.77;;;12.20;99.30;;;14.84;51.64;98245.72;5004989;28;20048;-63
2022/09/20 09:22:04;;;;;;;6.00;1.60;;;12.20;95.20;;;15.11;51.87;98236.38;5005219;28;20042;-63
2022/09/20 09:24:32;;;;;;;4.80;2.25;;;12.20;99.90;;;14.95;51.80;98237.31;5001615;28;20056;-63
2022/09/20 09:27:16;;;;;;;9.73;2.35;;;12.30;97.30;;;15.02;51.74;98237.41;5004355;28;20077;-63
2022/09/20 09:29:52;;;;;;;3.90;1.30;;;12.30;96.80;;;14.98;51.21;98238.78;5005609;28;20045;-63
2022/09/20 09:32:31;;;;;;;5.78;2.00;;;12.30;94.10;;;15.11;51.16;98233.69;5006719;28;20056;-61
2022/09/20 09:35:21;;;;;;;4.38;1.85;;;12.30;94.80;;;15.06;50.79;98238.78;5004858;28;20069;-62
2022/09/20 09:38:01;;;;;;;5.63;1.80;;;12.30;92.40;;;15.06;50.40;98233.41;5005995;28;20056;-62
2022/09/20 09:40:31;;;;;;;8.23;2.13;;;12.30;93.00;;;14.92;50.05;98231.44;5005123;28;20076;-62
2022/09/20 09:43:01;;;;;;;4.28;1.48;;;12.20;91.80;;;15.11;49.63;98236.38;5004966;28;20058;-62
2022/09/20 09:45:37;;;;;;;4.30;2.20;;;12.30;87.80;;;15.11;49.54;98235.56;5005333;28;20080;-62
2022/09/20 09:48:20;;;;;;;3.70;1.83;;;12.50;88.40;;;15.40;49.60;98232.19;5007665;28;20054;-62
2022/09/20 09:50:49;;;;;;;5.32;3.00;;;12.70;88.00;;;15.41;48.57;98235.69;5005940;28;20046;-62
2022/09/20 09:53:22;;;;;;;3.08;1.88;;;12.80;84.90;;;15.58;48.06;98234.56;5007139;28;20046;-62
2022/09/20 09:56:00;;;;;;;5.13;1.52;;;12.90;80.10;;;15.59;46.62;98235.44;5006835;28;20052;-62
2022/09/20 09:58:44;;;;;;;8.65;1.90;;;13.00;77.60;;;15.56;46.96;98232.06;5006982;28;20053;-62
2022/09/20 10:01:49;;;;;;;11.13;2.33;;;13.10;77.60;;;15.66;47.11;98237.19;5006451;28;20052;-63
2022/09/20 10:04:34;;;;;;;4.28;1.70;;;13.10;75.30;;;15.89;46.74;98231.03;5005190;28;20264;-62
2022/09/20 10:07:40;;;;;;;5.28;2.25;;;13.10;72.50;;;15.62;46.11;98235.88;5006387;28;20052;-63
2022/09/20 10:10:32;;;;;;;8.43;3.30;;;13.10;72.30;;;15.77;45.45;98229.78;5006812;28;20558;-62
2022/09/20 10:13:40;;;;;;;3.65;1.73;;;13.00;68.90;;;15.79;45.39;98228.59;5007432;28;20055;-63
2022/09/20 10:16:28;;;;;;;6.60;1.55;;;12.90;71.10;;;15.79;46.05;98231.28;5007213;28;20062;-62
2022/09/20 10:19:39;;;;;;;3.85;1.48;;;12.90;72.50;;;15.66;46.37;98237.19;5009850;28;20256;-63
2022/09/20 10:22:32;;;;;;;3.72;2.13;;;12.90;72.90;;;15.85;46.63;98235.09;5009348;28;20111;-62
2022/09/20 10:25:32;;;;;;;5.60;2.10;;;13.00;74.20;;;15.82;46.42;98230.06;5009117;28;20229;-63
2022/09/20 10:28:29;;;;;;;3.70;1.67;;;13.10;71.50;;;15.61;45.37;98236.91;5008893;28;20053;-61
2022/09/20 10:31:31;;;;;;;6.28;2.10;;;13.00;70.10;;;15.23;46.22;98231.44;5009340;28;20054;-62
2022/09/20 10:34:23;;;;;;;3.28;1.58;;;12.70;70.80;;;15.62;45.70;98227.84;5008970;28;20057;-61
2022/09/20 10:36:59;;;;;;;3.88;1.70;;;12.80;69.60;;;15.63;45.54;98223.31;5010619;28;20058;-62
2022/09/20 10:39:37;;;;;;;5.13;2.05;;;13.00;69.40;;;15.87;45.44;98225.00;5007379;28;20061;-60
2022/09/20 10:46:02;;;;;;;3.15;1.20;;;13.50;64.50;;;16.20;44.73;98214.78;5009011;28;20574;-60
2022/09/20 10:49:07;;;;;;;4.25;1.65;;;13.70;67.30;;;16.09;43.56;98221.44;5007208;28;20254;-60
2022/09/20 10:52:24;;;;;;;5.28;1.80;;;13.60;63.30;;;16.15;44.13;98219.88;5007841;28;20056;-61
2022/09/20 10:55:14;;;;;;;4.22;1.65;;;13.60;65.70;;;16.35;44.68;98222.88;5009003;28;20046;-61
2022/09/20 10:58:19;;;;;;;3.95;1.65;;;13.50;67.80;;;15.98;43.86;98227.25;5009109;28;20237;-61
2022/09/20 11:00:59;;;;;;;3.83;1.90;;;13.40;65.70;;;16.10;44.80;98224.97;5009288;28;20069;-61
2022/09/20 11:04:00;;;;;;;4.05;1.95;;;13.30;68.20;;;15.61;44.42;98231.56;4991935;28;20063;-60
2022/09/20 11:07:06;;;;;;;5.50;1.90;;;13.10;65.50;;;15.59;44.83;98240.81;5009122;28;20259;-60
2022/09/20 11:09:41;;;;;;;6.45;1.92;;;13.10;66.50;;;15.64;45.48;98230.34;5008494;28;20042;-60
2022/09/20 11:12:20;;;;;;;4.30;1.67;;;13.00;67.70;;;15.63;45.74;98234.88;5007833;28;20053;-61
2022/09/20 11:15:11;;;;;;;6.35;1.85;;;13.00;68.70;;;15.87;45.59;98236.56;5009611;28;20054;-60
2022/09/20 11:17:52;;;;;;;6.03;1.73;;;13.00;69.10;;;15.68;45.53;98226.28;5007136;28;20251;-60
2022/09/20 11:20:32;;;;;;;4.72;2.05;;;13.10;68.40;;;16.14;45.91;98228.94;5007226;28;20051;-60
2022/09/20 11:23:28;;;;;;;5.22;2.03;;;13.40;69.80;;;16.06;45.88;98231.72;5006666;28;20050;-60
2022/09/20 11:26:04;;;;;;;8.55;2.72;;;13.50;69.10;;;16.10;45.99;98228.47;5007480;28;20041;-60
2022/09/20 11:28:50;;;;;;;7.07;2.22;;;13.40;69.20;;;16.08;45.44;98233.19;5007497;28;20390;-60
2022/09/20 11:31:35;;;;;;;3.50;1.63;;;13.40;67.70;;;16.18;44.54;98229.44;5007944;28;20364;-60
2022/09/20 11:34:25;;;;;;;4.07;1.60;;;13.40;65.40;;;16.50;44.65;98223.72;5007959;28;20272;-60
2022/09/20 11:37:01;;;;;;;4.18;1.80;;;13.70;65.30;;;16.77;43.86;98215.16;5009977;28;20058;-60
2022/09/20 11:39:47;;;;;;;4.90;1.70;;;14.00;61.50;;;16.82;42.73;98215.47;5007985;28;20240;-60
2022/09/20 11:42:26;;;;;;;4.70;1.75;;;14.20;58.30;;;16.87;42.83;98219.28;5006947;28;20053;-60
2022/09/20 11:44:54;;;;;;;4.25;2.40;;;14.30;59.40;;;16.50;42.44;98220.19;5007282;28;20053;-60
2022/09/20 11:47:47;;;;;;;4.72;1.90;;;14.00;59.50;;;16.71;42.08;98222.13;5007974;28;20088;-60
2022/09/20 11:50:46;;;;;;;4.20;2.08;;;14.10;58.30;;;16.90;42.38;98215.38;5005998;28;20046;-60
2022/09/20 11:53:40;;;;;;;3.30;1.90;;;14.20;58.90;;;16.81;40.96;98211.06;5007781;28;20049;-60